Flight Information

DEPARTURE
APPLE VALLEY, CA
Elevation:
3061
Runways:
18/36 - 6498x150 - ASPH-G
8/26 - 4099x60 - ASPH-G
CTAF:
122.800
DESTINATION
BAKERSFIELD, CA
Elevation:
509
TPA:
1509 (est.)
Runways:
12L/30R - 10849x150 - ASPH-G
12R/30L - 7700x100 - ASPH-E
Active PE Arriving:
30L - 30R
Active PE Approach:
VISUAL APPROACHES IN USE.
Current PE ATIS:
B
Altimeter:
29.86
Remarks:
ATIS:
118.6 661-399-9425
Tower:
BAKERSFIELD TOWER 118.1
Ground:
121.7


105.4 NM300° True-14° Var285° HDG

Flight Plan:
(click to file on line)

1. Type
2. Aircraft Identification
3. Aircraft Type / Special Equipment
4. True Airspeed
kts
5. Departure Airport
(ICAO code)
6. Arriving Airport
(ICAO code)
7. Cruising Altitude
ft
8. Alternate Airport
(ICAO code)
9. Route of Flight
10. Remarks


00:00:00 Departure ATIS: Destination ATIS:

Clearance Limit:
Route:
Altitude: Expect in minutes
Frequency:
Transponder: (7500 Hijack / 7600 Lost Comms / 7700 Emergency)


KVCV 252155Z 20018G33KT 10SM OVC035 15/09 A2981 RMK AO2
Time: 2021-10-25T21:55:00Z
1635200785
Winds: 200 @ 18 kts
Gusting:33 kts
Visibility: 10.0 sm
Clouds (AGL): OVC 3500
Temperature: 15.0 C
Dew Point: 9.0 C
Pressure: 29.811024 in Hgbr

KBFL 252154Z 14005KT 9SM SCT060 16/12 A2986 RMK AO2 RAE19 SLP108 P0000 T01560117
Time: 2021-10-25T21:54:00Z
1635200785
Winds: 140 @ 5 kts
Visibility: 9.0 sm
Clouds (AGL): SCT 6000
Temperature: 15.6 C
Dew Point: 11.7 C
Pressure: 29.861221 in Hgbr


Notes:

Data extracted from FAA Digital Chart Supplement. Effective: 0901Z Thursday, OCT 7, 2021 to 0901Z Thursday, DEC 2, 2021
Current ATIS data is provided courtisy of PilotEdge.